sensor_id;sensor_type;location;lat;lon;timestamp;pressure;altitude;pressure_sealevel;temperature;humidity
22743;BME280;11538;48.884;8.696;2023-05-08T00:01:37;99013.63;;;15.25;100.00
22743;BME280;11538;48.884;8.696;2023-05-08T00:04:04;99014.91;;;15.28;100.00
22743;BME280;11538;48.884;8.696;2023-05-08T00:06:33;99012.97;;;15.28;100.00
22743;BME280;11538;48.884;8.696;2023-05-08T00:09:01;99015.69;;;15.28;100.00
22743;BME280;11538;48.884;8.696;2023-05-08T00:11:27;99013.13;;;15.23;100.00
22743;BME280;11538;48.884;8.696;2023-05-08T00:13:54;99014.75;;;15.24;100.00
22743;BME280;11538;48.884;8.696;2023-05-08T00:16:21;99016.19;;;15.21;100.00
22743;BME280;11538;48.884;8.696;2023-05-08T00:18:51;99007.03;;;15.17;100.00
22743;BME280;11538;48.884;8.696;2023-05-08T00:21:19;99012.50;;;15.17;100.00
22743;BME280;11538;48.884;8.696;2023-05-08T00:23:46;99016.22;;;15.13;100.00
22743;BME280;11538;48.884;8.696;2023-05-08T00:26:13;99012.34;;;15.14;100.00
22743;BME280;11538;48.884;8.696;2023-05-08T00:28:40;99017.34;;;15.12;100.00
22743;BME280;11538;48.884;8.696;2023-05-08T00:31:10;99016.03;;;15.09;100.00
22743;BME280;11538;48.884;8.696;2023-05-08T00:33:37;99016.69;;;15.15;100.00
22743;BME280;11538;48.884;8.696;2023-05-08T00:36:04;99017.16;;;15.17;100.00
22743;BME280;11538;48.884;8.696;2023-05-08T00:38:35;99017.66;;;15.19;100.00
22743;BME280;11538;48.884;8.696;2023-05-08T00:41:02;99012.97;;;15.19;100.00
22743;BME280;11538;48.884;8.696;2023-05-08T00:43:29;99017.31;;;15.20;100.00
22743;BME280;11538;48.884;8.696;2023-05-08T00:46:00;99013.94;;;15.24;100.00
22743;BME280;11538;48.884;8.696;2023-05-08T00:48:31;99018.91;;;15.21;100.00
22743;BME280;11538;48.884;8.696;2023-05-08T00:51:01;99022.00;;;15.20;100.00
22743;BME280;11538;48.884;8.696;2023-05-08T00:53:37;99021.66;;;15.21;100.00
22743;BME280;11538;48.884;8.696;2023-05-08T00:56:06;99021.34;;;15.14;100.00
22743;BME280;11538;48.884;8.696;2023-05-08T00:58:46;99024.72;;;15.11;100.00
22743;BME280;11538;48.884;8.696;2023-05-08T01:01:14;99020.72;;;15.09;100.00
22743;BME280;11538;48.884;8.696;2023-05-08T01:03:42;99023.94;;;15.11;100.00
22743;BME280;11538;48.884;8.696;2023-05-08T01:06:13;99031.31;;;15.10;100.00
22743;BME280;11538;48.884;8.696;2023-05-08T01:08:44;99027.31;;;15.08;100.00
22743;BME280;11538;48.884;8.696;2023-05-08T01:11:33;99032.78;;;15.08;100.00
22743;BME280;11538;48.884;8.696;2023-05-08T01:14:31;99029.53;;;15.14;100.00
22743;BME280;11538;48.884;8.696;2023-05-08T01:17:11;99038.38;;;15.20;100.00
22743;BME280;11538;48.884;8.696;2023-05-08T01:28:53;99040.94;;;15.25;100.00
22743;BME280;11538;48.884;8.696;2023-05-08T01:32:13;99047.84;;;15.23;100.00
22743;BME280;11538;48.884;8.696;2023-05-08T01:35:11;99040.94;;;15.16;100.00
22743;BME280;11538;48.884;8.696;2023-05-08T01:38:09;99033.72;;;15.12;100.00
22743;BME280;11538;48.884;8.696;2023-05-08T01:40:50;99038.72;;;15.10;100.00
22743;BME280;11538;48.884;8.696;2023-05-08T01:43:34;99044.84;;;15.06;100.00
22743;BME280;11538;48.884;8.696;2023-05-08T01:46:15;99044.00;;;15.06;100.00
22743;BME280;11538;48.884;8.696;2023-05-08T01:48:50;99047.88;;;15.05;100.00
22743;BME280;11538;48.884;8.696;2023-05-08T01:51:24;99043.53;;;15.04;100.00
22743;BME280;11538;48.884;8.696;2023-05-08T01:54:04;99050.28;;;15.06;100.00
22743;BME280;11538;48.884;8.696;2023-05-08T01:56:37;99045.47;;;15.03;100.00
22743;BME280;11538;48.884;8.696;2023-05-08T01:59:07;99046.91;;;15.01;100.00
22743;BME280;11538;48.884;8.696;2023-05-08T02:01:35;99043.41;;;15.00;100.00
22743;BME280;11538;48.884;8.696;2023-05-08T02:04:05;99048.69;;;15.05;100.00
22743;BME280;11538;48.884;8.696;2023-05-08T02:06:34;99048.03;;;15.09;100.00
22743;BME280;11538;48.884;8.696;2023-05-08T02:09:06;99046.59;;;15.02;100.00
22743;BME280;11538;48.884;8.696;2023-05-08T02:11:36;99045.31;;;15.00;100.00
22743;BME280;11538;48.884;8.696;2023-05-08T02:14:06;99052.06;;;15.02;100.00
22743;BME280;11538;48.884;8.696;2023-05-08T02:16:37;99049.97;;;14.99;100.00
22743;BME280;11538;48.884;8.696;2023-05-08T02:19:08;99056.56;;;14.98;100.00
22743;BME280;11538;48.884;8.696;2023-05-08T02:21:37;99048.53;;;15.02;100.00
22743;BME280;11538;48.884;8.696;2023-05-08T02:24:06;99048.53;;;15.02;100.00
22743;BME280;11538;48.884;8.696;2023-05-08T02:26:35;99048.84;;;15.00;100.00
22743;BME280;11538;48.884;8.696;2023-05-08T02:29:06;99047.91;;;14.96;100.00
22743;BME280;11538;48.884;8.696;2023-05-08T02:31:35;99049.50;;;14.97;100.00
22743;BME280;11538;48.884;8.696;2023-05-08T02:34:04;99046.13;;;15.00;100.00
22743;BME280;11538;48.884;8.696;2023-05-08T02:36:35;99049.00;;;15.04;100.00
22743;BME280;11538;48.884;8.696;2023-05-08T02:39:05;99048.34;;;15.07;100.00
22743;BME280;11538;48.884;8.696;2023-05-08T02:41:36;99054.94;;;15.06;100.00
22743;BME280;11538;48.884;8.696;2023-05-08T02:44:06;99050.28;;;15.06;100.00
22743;BME280;11538;48.884;8.696;2023-05-08T02:46:47;99046.91;;;15.10;100.00
22743;BME280;11538;48.884;8.696;2023-05-08T02:49:29;99046.91;;;15.10;100.00
22743;BME280;11538;48.884;8.696;2023-05-08T02:52:17;99052.84;;;15.12;100.00
22743;BME280;11538;48.884;8.696;2023-05-08T02:55:15;99054.00;;;15.11;100.00
22743;BME280;11538;48.884;8.696;2023-05-08T02:57:54;99052.84;;;15.03;100.00
22743;BME280;11538;48.884;8.696;2023-05-08T03:00:39;99056.56;;;14.98;100.00
22743;BME280;11538;48.884;8.696;2023-05-08T03:06:17;99060.25;;;14.94;100.00
22743;BME280;11538;48.884;8.696;2023-05-08T03:08:47;99058.16;;;14.90;100.00
22743;BME280;11538;48.884;8.696;2023-05-08T03:11:21;99055.13;;;14.92;100.00
22743;BME280;11538;48.884;8.696;2023-05-08T03:13:55;99061.06;;;14.94;100.00
22743;BME280;11538;48.884;8.696;2023-05-08T03:16:26;99052.53;;;14.96;100.00
22743;BME280;11538;48.884;8.696;2023-05-08T03:19:04;99049.50;;;14.97;100.00
22743;BME280;11538;48.884;8.696;2023-05-08T03:21:35;99046.78;;;14.97;100.00
22743;BME280;11538;48.884;8.696;2023-05-08T03:24:06;99045.47;;;14.95;100.00
22743;BME280;11538;48.884;8.696;2023-05-08T03:26:36;99051.75;;;14.95;100.00
22743;BME280;11538;48.884;8.696;2023-05-08T03:29:04;99051.75;;;14.95;100.00
22743;BME280;11538;48.884;8.696;2023-05-08T03:31:33;99058.97;;;15.00;100.00
22743;BME280;11538;48.884;8.696;2023-05-08T03:34:01;99059.13;;;15.03;100.00
22743;BME280;11538;48.884;8.696;2023-05-08T03:36:30;99060.75;;;15.04;100.00
22743;BME280;11538;48.884;8.696;2023-05-08T03:38:59;99051.59;;;15.00;100.00
22743;BME280;11538;48.884;8.696;2023-05-08T03:41:26;99057.53;;;14.94;100.00
22743;BME280;11538;48.884;8.696;2023-05-08T03:43:55;99052.41;;;14.92;100.00
22743;BME280;11538;48.884;8.696;2023-05-08T03:46:24;99051.44;;;14.88;100.00
22743;BME280;11538;48.884;8.696;2023-05-08T03:48:53;99059.00;;;14.91;100.00
22743;BME280;11538;48.884;8.696;2023-05-08T03:51:21;99053.66;;;14.95;100.00
22743;BME280;11538;48.884;8.696;2023-05-08T03:53:48;99058.34;;;14.94;100.00
22743;BME280;11538;48.884;8.696;2023-05-08T03:56:15;99059.28;;;14.89;100.00
22743;BME280;11538;48.884;8.696;2023-05-08T03:59:08;99061.72;;;14.91;100.00
22743;BME280;11538;48.884;8.696;2023-05-08T04:01:41;99053.84;;;14.89;100.00
22743;BME280;11538;48.884;8.696;2023-05-08T04:04:29;99057.53;;;14.94;100.00
22743;BME280;11538;48.884;8.696;2023-05-08T04:07:09;99063.00;;;14.94;100.00
22743;BME280;11538;48.884;8.696;2023-05-08T04:10:07;99071.03;;;14.99;100.00
22743;BME280;11538;48.884;8.696;2023-05-08T04:12:56;99065.56;;;14.99;100.00
22743;BME280;11538;48.884;8.696;2023-05-08T04:15:30;99063.31;;;14.92;100.00
22743;BME280;11538;48.884;8.696;2023-05-08T04:18:05;99069.91;;;14.91;100.00
22743;BME280;11538;48.884;8.696;2023-05-08T04:20:33;99071.19;;;14.94;100.00
22743;BME280;11538;48.884;8.696;2023-05-08T04:23:02;99071.53;;;14.92;100.00
22743;BME280;11538;48.884;8.696;2023-05-08T04:25:32;99073.59;;;14.95;100.00
22743;BME280;11538;48.884;8.696;2023-05-08T04:28:02;99070.88;;;14.95;100.00
22743;BME280;11538;48.884;8.696;2023-05-08T04:30:29;99082.28;;;14.97;100.00
22743;BME280;11538;48.884;8.696;2023-05-08T04:32:56;99071.66;;;15.04;100.00
22743;BME280;11538;48.884;8.696;2023-05-08T04:35:25;99080.34;;;15.06;100.00
22743;BME280;11538;48.884;8.696;2023-05-08T04:37:52;99083.25;;;15.01;100.00
22743;BME280;11538;48.884;8.696;2023-05-08T04:40:19;99088.69;;;15.01;100.00
22743;BME280;11538;48.884;8.696;2023-05-08T04:42:46;99081.63;;;15.00;100.00
22743;BME280;11538;48.884;8.696;2023-05-08T04:45:13;99085.63;;;15.03;100.00
22743;BME280;11538;48.884;8.696;2023-05-08T04:47:40;99092.88;;;15.08;100.00
22743;BME280;11538;48.884;8.696;2023-05-08T04:50:08;99090.16;;;15.08;100.00
22743;BME280;11538;48.884;8.696;2023-05-08T04:52:35;99093.53;;;15.04;100.00
22743;BME280;11538;48.884;8.696;2023-05-08T04:55:02;99091.91;;;15.03;100.00
22743;BME280;11538;48.884;8.696;2023-05-08T04:57:29;99095.44;;;15.04;100.00
22743;BME280;11538;48.884;8.696;2023-05-08T04:59:56;99090.16;;;15.08;100.00
22743;BME280;11538;48.884;8.696;2023-05-08T05:02:25;99092.88;;;15.08;100.00
22743;BME280;11538;48.884;8.696;2023-05-08T05:04:52;99095.44;;;15.04;100.00
22743;BME280;11538;48.884;8.696;2023-05-08T05:07:19;99093.03;;;15.02;100.00
22743;BME280;11538;48.884;8.696;2023-05-08T05:09:46;99101.53;;;15.01;100.00
22743;BME280;11538;48.884;8.696;2023-05-08T05:12:12;99100.91;;;15.04;100.00
22743;BME280;11538;48.884;8.696;2023-05-08T05:14:40;99107.81;;;15.10;100.00
22743;BME280;11538;48.884;8.696;2023-05-08T05:17:07;99101.69;;;15.13;100.00
22743;BME280;11538;48.884;8.696;2023-05-08T05:19:34;99101.06;;;15.16;100.00
22743;BME280;11538;48.884;8.696;2023-05-08T05:22:01;99112.16;;;15.20;100.00
22743;BME280;11538;48.884;8.696;2023-05-08T05:24:29;99110.06;;;15.26;100.00
22743;BME280;11538;48.884;8.696;2023-05-08T05:26:57;99114.41;;;15.27;100.00
22743;BME280;11538;48.884;8.696;2023-05-08T05:29:24;99108.78;;;15.23;100.00
22743;BME280;11538;48.884;8.696;2023-05-08T05:31:51;99113.59;;;15.17;100.00
22743;BME280;11538;48.884;8.696;2023-05-08T05:34:17;99115.53;;;15.17;100.00
22743;BME280;11538;48.884;8.696;2023-05-08T05:36:44;99121.78;;;15.17;100.00
22743;BME280;11538;48.884;8.696;2023-05-08T05:39:12;99117.13;;;15.18;100.00
22743;BME280;11538;48.884;8.696;2023-05-08T05:41:40;99119.72;;;15.23;100.00
22743;BME280;11538;48.884;8.696;2023-05-08T05:44:10;99116.03;;;15.28;100.00
22743;BME280;11538;48.884;8.696;2023-05-08T05:46:40;99126.31;;;15.31;100.00
22743;BME280;11538;48.884;8.696;2023-05-08T05:49:10;99119.38;;;15.33;100.00
22743;BME280;11538;48.884;8.696;2023-05-08T05:51:37;99124.69;;;15.39;100.00
22743;BME280;11538;48.884;8.696;2023-05-08T05:54:04;99126.44;;;15.43;100.00
22743;BME280;11538;48.884;8.696;2023-05-08T05:56:31;99131.28;;;15.46;100.00
22743;BME280;11538;48.884;8.696;2023-05-08T05:58:58;99129.00;;;15.48;100.00
22743;BME280;11538;48.884;8.696;2023-05-08T06:01:25;99130.28;;;15.51;100.00
22743;BME280;11538;48.884;8.696;2023-05-08T06:03:55;99124.00;;;15.59;100.00
22743;BME280;11538;48.884;8.696;2023-05-08T06:06:22;99131.72;;;15.57;100.00
22743;BME280;11538;48.884;8.696;2023-05-08T06:08:49;99133.66;;;15.57;100.00
22743;BME280;11538;48.884;8.696;2023-05-08T06:11:18;99125.47;;;15.57;100.00
22743;BME280;11538;48.884;8.696;2023-05-08T06:13:48;99134.16;;;15.59;100.00
22743;BME280;11538;48.884;8.696;2023-05-08T06:16:16;99140.56;;;15.54;100.00
22743;BME280;11538;48.884;8.696;2023-05-08T06:18:43;99144.13;;;15.55;100.00
22743;BME280;11538;48.884;8.696;2023-05-08T06:21:10;99140.25;;;15.56;100.00
22743;BME280;11538;48.884;8.696;2023-05-08T06:23:36;99137.53;;;15.56;100.00
22743;BME280;11538;48.884;8.696;2023-05-08T06:26:03;99142.00;;;15.60;100.00
22743;BME280;11538;48.884;8.696;2023-05-08T06:28:30;99141.22;;;15.60;100.00
22743;BME280;11538;48.884;8.696;2023-05-08T06:30:57;99144.44;;;15.62;100.00
22743;BME280;11538;48.884;8.696;2023-05-08T06:33:24;99138.97;;;15.62;100.00
22743;BME280;11538;48.884;8.696;2023-05-08T06:35:52;99133.81;;;15.60;100.00
22743;BME280;11538;48.884;8.696;2023-05-08T06:38:20;99142.00;;;15.60;100.00
22743;BME280;11538;48.884;8.696;2023-05-08T06:40:47;99140.41;;;15.59;100.00
22743;BME280;11538;48.884;8.696;2023-05-08T06:43:15;99140.41;;;15.59;100.00
22743;BME280;11538;48.884;8.696;2023-05-08T06:45:43;99147.34;;;15.57;100.00
22743;BME280;11538;48.884;8.696;2023-05-08T06:48:11;99141.38;;;15.55;100.00
22743;BME280;11538;48.884;8.696;2023-05-08T06:50:39;99137.53;;;15.56;100.00
22743;BME280;11538;48.884;8.696;2023-05-08T06:53:06;99140.25;;;15.56;100.00
22743;BME280;11538;48.884;8.696;2023-05-08T06:55:33;99141.88;;;15.57;100.00
22743;BME280;11538;48.884;8.696;2023-05-08T06:58:00;99147.47;;;15.60;100.00
22743;BME280;11538;48.884;8.696;2023-05-08T07:00:27;99140.41;;;15.59;100.00
22743;BME280;11538;48.884;8.696;2023-05-08T07:02:55;99144.44;;;15.62;100.00
22743;BME280;11538;48.884;8.696;2023-05-08T07:05:22;99136.72;;;15.64;100.00
22743;BME280;11538;48.884;8.696;2023-05-08T07:07:49;99142.00;;;15.69;100.00
22743;BME280;11538;48.884;8.696;2023-05-08T07:10:17;99144.75;;;15.69;100.00
22743;BME280;11538;48.884;8.696;2023-05-08T07:12:47;99142.78;;;15.70;100.00
22743;BME280;11538;48.884;8.696;2023-05-08T07:15:14;99139.25;;;15.69;100.00
22743;BME280;11538;48.884;8.696;2023-05-08T07:17:52;99146.66;;;15.69;100.00
22743;BME280;11538;48.884;8.696;2023-05-08T07:20:19;99150.03;;;15.65;100.00
22743;BME280;11538;48.884;8.696;2023-05-08T07:22:46;99148.91;;;15.67;100.00
22743;BME280;11538;48.884;8.696;2023-05-08T07:25:13;99147.31;;;15.65;100.00
22743;BME280;11538;48.884;8.696;2023-05-08T07:27:41;99157.13;;;15.67;100.00
22743;BME280;11538;48.884;8.696;2023-05-08T07:30:09;99157.59;;;15.69;100.00
22743;BME280;11538;48.884;8.696;2023-05-08T07:32:36;99154.06;;;15.68;100.00
22743;BME280;11538;48.884;8.696;2023-05-08T07:35:06;99159.06;;;15.66;100.00
22743;BME280;11538;48.884;8.696;2023-05-08T07:37:38;99156.63;;;15.64;100.00
22743;BME280;11538;48.884;8.696;2023-05-08T07:40:06;99151.66;;;15.67;100.00
22743;BME280;11538;48.884;8.696;2023-05-08T07:42:43;99155.97;;;15.68;100.00
22743;BME280;11538;48.884;8.696;2023-05-08T07:45:12;99164.34;;;15.71;100.00
22743;BME280;11538;48.884;8.696;2023-05-08T07:47:55;99163.88;;;15.69;100.00
22743;BME280;11538;48.884;8.696;2023-05-08T07:50:25;99157.94;;;15.67;100.00
22743;BME280;11538;48.884;8.696;2023-05-08T07:52:52;99159.06;;;15.66;100.00
22743;BME280;11538;48.884;8.696;2023-05-08T07:55:20;99160.31;;;15.69;100.00
22743;BME280;11538;48.884;8.696;2023-05-08T07:57:47;99157.41;;;15.74;100.00
22743;BME280;11538;48.884;8.696;2023-05-08T08:00:14;99168.03;;;15.75;100.00
22743;BME280;11538;48.884;8.696;2023-05-08T08:02:43;99162.88;;;15.74;100.00
22743;BME280;11538;48.884;8.696;2023-05-08T08:05:11;99161.63;;;15.71;100.00
22743;BME280;11538;48.884;8.696;2023-05-08T08:07:39;99166.28;;;15.71;100.00
22743;BME280;11538;48.884;8.696;2023-05-08T08:10:06;99171.75;;;15.71;100.00
22743;BME280;11538;48.884;8.696;2023-05-08T08:12:34;99165.16;;;15.72;100.00
22743;BME280;11538;48.884;8.696;2023-05-08T08:15:01;99171.09;;;15.74;100.00
22743;BME280;11538;48.884;8.696;2023-05-08T08:17:28;99173.53;;;15.75;100.00
22743;BME280;11538;48.884;8.696;2023-05-08T08:19:55;99180.13;;;15.74;100.00
22743;BME280;11538;48.884;8.696;2023-05-08T08:22:24;99176.56;;;15.74;100.00
22743;BME280;11538;48.884;8.696;2023-05-08T08:24:54;99176.56;;;15.74;100.00
22743;BME280;11538;48.884;8.696;2023-05-08T08:27:22;99173.03;;;15.73;100.00
22743;BME280;11538;48.884;8.696;2023-05-08T08:29:49;99171.91;;;15.74;100.00
22743;BME280;11538;48.884;8.696;2023-05-08T08:32:24;99174.78;;;15.78;100.00
22743;BME280;11538;48.884;8.696;2023-05-08T08:34:51;99178.47;;;15.82;100.00
22743;BME280;11538;48.884;8.696;2023-05-08T08:37:19;99175.91;;;15.86;100.00
22743;BME280;11538;48.884;8.696;2023-05-08T08:39:45;99179.44;;;15.86;100.00
22743;BME280;11538;48.884;8.696;2023-05-08T08:42:14;99175.25;;;15.80;100.00
22743;BME280;11538;48.884;8.696;2023-05-08T08:44:41;99182.19;;;15.77;100.00
22743;BME280;11538;48.884;8.696;2023-05-08T08:47:10;99178.81;;;15.81;100.00
22743;BME280;11538;48.884;8.696;2023-05-08T08:49:46;99187.03;;;15.81;100.00
22743;BME280;11538;48.884;8.696;2023-05-08T08:54:49;99178.34;;;15.78;100.00
22743;BME280;11538;48.884;8.696;2023-05-08T08:57:18;99186.84;;;15.77;100.00
22743;BME280;11538;48.884;8.696;2023-05-08T08:59:46;99192.50;;;15.72;100.00
22743;BME280;11538;48.884;8.696;2023-05-08T09:02:16;99198.94;;;15.67;100.00
22743;BME280;11538;48.884;8.696;2023-05-08T09:04:48;99196.00;;;15.81;100.00
22743;BME280;11538;48.884;8.696;2023-05-08T09:07:17;99192.34;;;15.95;100.00
22743;BME280;11538;48.884;8.696;2023-05-08T09:09:45;99185.91;;;15.90;100.00
22743;BME280;11538;48.884;8.696;2023-05-08T09:12:12;99189.91;;;15.84;100.00
22743;BME280;11538;48.884;8.696;2023-05-08T09:14:40;99188.16;;;15.79;100.00
22743;BME280;11538;48.884;8.696;2023-05-08T09:17:08;99193.94;;;15.78;100.00
22743;BME280;11538;48.884;8.696;2023-05-08T09:19:35;99187.34;;;15.79;100.00
22743;BME280;11538;48.884;8.696;2023-05-08T09:22:03;99187.50;;;15.83;100.00
22743;BME280;11538;48.884;8.696;2023-05-08T09:24:59;99188.28;;;15.83;100.00
22743;BME280;11538;48.884;8.696;2023-05-08T09:27:29;99188.47;;;15.87;100.00
22743;BME280;11538;48.884;8.696;2023-05-08T09:30:08;99193.47;;;15.93;100.00
22743;BME280;11538;48.884;8.696;2023-05-08T09:32:38;99184.63;;;15.97;100.00
22743;BME280;11538;48.884;8.696;2023-05-08T09:35:08;99184.75;;;16.00;100.00
22743;BME280;11538;48.884;8.696;2023-05-08T09:37:41;99190.38;;;16.04;100.00
22743;BME280;11538;48.884;8.696;2023-05-08T09:40:20;99192.31;;;16.03;100.00
22743;BME280;11538;48.884;8.696;2023-05-08T09:42:49;99192.47;;;16.07;100.00
22743;BME280;11538;48.884;8.696;2023-05-08T09:45:30;99190.03;;;16.14;100.00
22743;BME280;11538;48.884;8.696;2023-05-08T09:47:58;99198.19;;;16.23;100.00
22743;BME280;11538;48.884;8.696;2023-05-08T09:50:25;99205.25;;;16.33;100.00
22743;BME280;11538;48.884;8.696;2023-05-08T09:52:53;99204.13;;;16.34;100.00
22743;BME280;11538;48.884;8.696;2023-05-08T09:55:21;99206.81;;;16.43;100.00
22743;BME280;11538;48.884;8.696;2023-05-08T09:57:57;99196.97;;;16.50;100.00
22743;BME280;11538;48.884;8.696;2023-05-08T10:00:27;99206.28;;;16.58;100.00
22743;BME280;11538;48.884;8.696;2023-05-08T10:03:01;99208.53;;;16.56;100.00
22743;BME280;11538;48.884;8.696;2023-05-08T10:05:33;99205.94;;;16.60;100.00
22743;BME280;11538;48.884;8.696;2023-05-08T10:08:19;99204.72;;;16.78;100.00
22743;BME280;11538;48.884;8.696;2023-05-08T10:10:47;99205.81;;;16.86;100.00
22743;BME280;11538;48.884;8.696;2023-05-08T10:13:14;99206.03;;;17.02;100.00
22743;BME280;11538;48.884;8.696;2023-05-08T10:15:42;99210.34;;;17.12;100.00
22743;BME280;11538;48.884;8.696;2023-05-08T10:18:10;99213.22;;;17.16;100.00
22743;BME280;11538;48.884;8.696;2023-05-08T10:20:40;99207.81;;;17.28;100.00
22743;BME280;11538;48.884;8.696;2023-05-08T10:23:14;99206.13;;;17.36;100.00
22743;BME280;11538;48.884;8.696;2023-05-08T10:25:47;99209.97;;;17.44;100.00
22743;BME280;11538;48.884;8.696;2023-05-08T10:28:57;99203.84;;;17.59;100.00
22743;BME280;11538;48.884;8.696;2023-05-08T10:31:27;99212.38;;;17.79;100.00
22743;BME280;11538;48.884;8.696;2023-05-08T10:33:55;99200.97;;;17.89;100.00
22743;BME280;11538;48.884;8.696;2023-05-08T10:36:25;99206.22;;;17.82;100.00
22743;BME280;11538;48.884;8.696;2023-05-08T10:38:57;99211.50;;;17.87;100.00
22743;BME280;11538;48.884;8.696;2023-05-08T10:41:25;99194.13;;;17.95;100.00
22743;BME280;11538;48.884;8.696;2023-05-08T10:43:54;99197.16;;;18.03;100.00
22743;BME280;11538;48.884;8.696;2023-05-08T10:47:09;99196.94;;;18.20;100.00
22743;BME280;11538;48.884;8.696;2023-05-08T10:49:59;99194.22;;;18.20;100.00
22743;BME280;11538;48.884;8.696;2023-05-08T10:52:48;99182.53;;;18.23;100.00
22743;BME280;11538;48.884;8.696;2023-05-08T10:55:30;99187.59;;;18.34;100.00
22743;BME280;11538;48.884;8.696;2023-05-08T11:03:23;99182.31;;;18.53;100.00
22743;BME280;11538;48.884;8.696;2023-05-08T11:06:00;99181.09;;;18.51;100.00
22743;BME280;11538;48.884;8.696;2023-05-08T11:08:29;99181.75;;;18.48;100.00
22743;BME280;11538;48.884;8.696;2023-05-08T11:11:04;99186.81;;;18.46;100.00
22743;BME280;11538;48.884;8.696;2023-05-08T11:14:13;99179.13;;;18.39;100.00
22743;BME280;11538;48.884;8.696;2023-05-08T11:19:22;99185.44;;;18.39;100.00
22743;BME280;11538;48.884;8.696;2023-05-08T11:22:20;99182.31;;;18.41;100.00
22743;BME280;11538;48.884;8.696;2023-05-08T11:27:36;99180.03;;;18.43;100.00
22743;BME280;11538;48.884;8.696;2023-05-08T11:38:39;99164.00;;;18.82;100.00
22743;BME280;11538;48.884;8.696;2023-05-08T11:41:20;99173.00;;;18.95;100.00
22743;BME280;11538;48.884;8.696;2023-05-08T11:49:20;99171.19;;;18.87;100.00
22743;BME280;11538;48.884;8.696;2023-05-08T11:51:57;99168.22;;;18.92;100.00
22743;BME280;11538;48.884;8.696;2023-05-08T11:54:29;99166.06;;;18.98;100.00
22743;BME280;11538;48.884;8.696;2023-05-08T11:56:56;99159.19;;;19.04;100.00
22743;BME280;11538;48.884;8.696;2023-05-08T11:59:25;99167.06;;;18.93;100.00
22743;BME280;11538;48.884;8.696;2023-05-08T12:01:52;99155.53;;;18.88;100.00
22743;BME280;11538;48.884;8.696;2023-05-08T12:04:22;99163.41;;;18.89;100.00
22743;BME280;11538;48.884;8.696;2023-05-08T12:06:56;99162.97;;;18.87;100.00
22743;BME280;11538;48.884;8.696;2023-05-08T12:09:23;99164.91;;;18.87;100.00
22743;BME280;11538;48.884;8.696;2023-05-08T12:11:56;99162.41;;;18.81;100.00
22743;BME280;11538;48.884;8.696;2023-05-08T12:14:23;99165.16;;;18.81;100.00
22743;BME280;11538;48.884;8.696;2023-05-08T12:17:16;99163.53;;;19.05;100.00
22743;BME280;11538;48.884;8.696;2023-05-08T12:19:44;99162.09;;;19.24;100.00
22743;BME280;11538;48.884;8.696;2023-05-08T12:22:11;99159.66;;;19.35;100.00
22743;BME280;11538;48.884;8.696;2023-05-08T12:24:38;99163.59;;;19.50;100.00
22743;BME280;11538;48.884;8.696;2023-05-08T12:27:06;99167.19;;;19.66;100.00
22743;BME280;11538;48.884;8.696;2023-05-08T12:29:35;99162.00;;;19.77;100.00
22743;BME280;11538;48.884;8.696;2023-05-08T12:32:03;99162.06;;;19.81;100.00
22743;BME280;11538;48.884;8.696;2023-05-08T12:34:30;99158.59;;;19.84;100.00
22743;BME280;11538;48.884;8.696;2023-05-08T12:37:04;99162.25;;;20.00;100.00
22743;BME280;11538;48.884;8.696;2023-05-08T12:39:35;99162.16;;;20.13;100.00
22743;BME280;11538;48.884;8.696;2023-05-08T12:42:04;99162.16;;;20.13;100.00
22743;BME280;11538;48.884;8.696;2023-05-08T12:44:31;99171.03;;;19.90;100.00
22743;BME280;11538;48.884;8.696;2023-05-08T12:46:58;99170.38;;;19.68;100.00
22743;BME280;11538;48.884;8.696;2023-05-08T12:49:28;99162.84;;;19.65;100.00
22743;BME280;11538;48.884;8.696;2023-05-08T12:52:07;99161.16;;;19.61;100.00
22743;BME280;11538;48.884;8.696;2023-05-08T12:54:37;99168.09;;;19.70;100.00
22743;BME280;11538;48.884;8.696;2023-05-08T12:57:12;99159.84;;;19.70;100.00
22743;BME280;11538;48.884;8.696;2023-05-08T12:59:41;99164.13;;;19.84;100.00
22743;BME280;11538;48.884;8.696;2023-05-08T13:02:17;99151.72;;;20.38;100.00
22743;BME280;11538;48.884;8.696;2023-05-08T13:04:46;99154.59;;;20.42;100.00
22743;BME280;11538;48.884;8.696;2023-05-08T13:07:13;99153.53;;;20.30;100.00
22743;BME280;11538;48.884;8.696;2023-05-08T13:09:56;99147.66;;;20.32;100.00
22743;BME280;11538;48.884;8.696;2023-05-08T13:12:23;99161.16;;;21.25;100.00
22743;BME280;11538;48.884;8.696;2023-05-08T13:14:51;99153.16;;;23.06;88.54
22743;BME280;11538;48.884;8.696;2023-05-08T13:17:18;99154.13;;;24.90;77.11
22743;BME280;11538;48.884;8.696;2023-05-08T13:19:45;99162.41;;;24.79;71.46
22743;BME280;11538;48.884;8.696;2023-05-08T13:22:12;99154.63;;;23.27;79.08
22743;BME280;11538;48.884;8.696;2023-05-08T13:24:39;99153.69;;;22.34;85.62
22743;BME280;11538;48.884;8.696;2023-05-08T13:27:06;99151.84;;;21.72;91.81
22743;BME280;11538;48.884;8.696;2023-05-08T13:29:33;99151.28;;;21.43;96.93
22743;BME280;11538;48.884;8.696;2023-05-08T13:32:00;99154.88;;;21.08;100.00
22743;BME280;11538;48.884;8.696;2023-05-08T13:34:27;99140.31;;;20.72;100.00
22743;BME280;11538;48.884;8.696;2023-05-08T13:36:54;99137.25;;;20.41;100.00
22743;BME280;11538;48.884;8.696;2023-05-08T13:39:21;99143.06;;;20.20;100.00
22743;BME280;11538;48.884;8.696;2023-05-08T13:41:48;99134.66;;;19.84;100.00
22743;BME280;11538;48.884;8.696;2023-05-08T13:44:14;99141.59;;;19.50;100.00
22743;BME280;11538;48.884;8.696;2023-05-08T13:46:41;99138.50;;;19.23;100.00
22743;BME280;11538;48.884;8.696;2023-05-08T13:49:08;99144.28;;;19.05;100.00
22743;BME280;11538;48.884;8.696;2023-05-08T13:51:36;99139.81;;;18.88;100.00